EST,Max TemperatureF,Mean TemperatureF,Min TemperatureF,Max Dew PointF,MeanDew PointF,Min DewpointF,Max Humidity, Mean Humidity, Min Humidity, Max Sea Level PressureIn, Mean Sea Level PressureIn, Min Sea Level PressureIn, Max VisibilityMiles, Mean VisibilityMiles, Min VisibilityMiles, Max Wind SpeedMPH, Mean Wind SpeedMPH, Max Gust SpeedMPH,PrecipitationIn, CloudCover, Events, WindDirDegrees
2012-11-1,46,44,41,38,36,33,82,74,66,29.57,29.54,29.50,10,10,10,8,4,,0.00,7,,204
2012-11-2,46,42,37,38,34,30,89,72,58,29.65,29.59,29.53,10,10,10,8,4,16,0.00,6,,263
2012-11-3,46,42,37,32,30,27,79,66,51,29.84,29.74,29.63,10,10,10,10,2,18,0.00,6,,317
2012-11-4,42,38,35,30,29,25,81,67,60,29.97,29.90,29.83,10,10,10,9,4,21,0.00,6,,337
2012-11-5,37,32,24,22,18,13,75,57,41,30.15,30.05,29.94,10,10,10,8,4,,0.00,6,,342
2012-11-6,37,28,19,18,14,10,88,61,32,30.25,30.21,30.16,10,10,10,7,1,,0.00,0,,10
2012-11-7,34,28,21,23,14,6,78,55,31,30.20,30.05,29.82,10,10,2,14,5,30,0.00,6,Snow,18
2012-11-8,36,32,28,29,27,23,93,85,73,29.84,29.77,29.72,10,4,1,12,8,24,0.10,8,Rain-Snow,357
2012-11-9,48,40,33,29,23,17,75,56,29,30.12,29.95,29.79,10,10,10,12,8,26,0.00,3,,338
2012-11-10,51,40,30,30,28,24,85,63,35,30.48,30.31,30.12,10,10,10,9,6,,0.00,0,,321
2012-11-11,57,46,34,44,38,28,83,69,51,30.50,30.47,30.43,10,10,8,13,4,17,0.00,4,,202
2012-11-12,62,53,44,53,46,40,89,74,49,30.47,30.37,30.21,10,10,7,17,8,25,0.00,2,,192
2012-11-13,62,46,30,55,39,24,90,81,70,30.46,30.26,30.10,10,9,5,15,8,29,0.16,6,Rain,255
2012-11-14,43,34,25,25,22,18,89,70,38,30.58,30.53,30.46,10,10,10,6,1,,0.00,2,,10
2012-11-15,41,31,21,25,22,19,89,74,43,30.51,30.43,30.33,10,10,10,8,1,,0.00,0,,355
2012-11-16,42,33,24,26,22,20,92,71,41,30.47,30.36,30.32,10,10,9,5,0,,0.00,0,,270
2012-11-17,45,34,23,29,23,20,88,74,43,30.69,30.62,30.48,10,10,7,5,1,,0.00,0,,283
2012-11-18,44,32,19,27,22,15,89,78,49,30.76,30.70,30.66,10,10,8,7,1,,0.00,1,,95
2012-11-19,46,32,18,27,21,14,89,76,44,30.65,30.50,30.30,10,10,8,4,0,,0.00,0,,45
2012-11-20,46,32,19,28,22,17,89,71,33,30.28,30.22,30.17,10,10,8,4,0,,0.00,0,,-1
2012-11-21,46,36,26,29,25,23,89,73,39,30.32,30.26,30.20,10,10,9,5,0,,0.00,0,,20
2012-11-22,52,38,24,34,27,21,92,79,40,30.32,30.25,30.15,10,9,6,5,1,,0.00,0,,188
2012-11-23,55,40,24,41,30,23,100,77,35,30.13,29.91,29.64,10,8,0,12,3,21,0.00,3,Fog-Rain,189
2012-11-24,44,37,28,41,23,12,93,60,42,29.66,29.61,29.57,10,10,8,15,8,29,0.00,7,Rain,272
2012-11-25,32,29,26,21,15,6,69,54,36,29.86,29.77,29.67,10,10,10,14,8,23,0.00,6,,250
2012-11-26,39,33,27,23,20,16,78,62,39,30.25,30.03,29.81,10,10,10,16,7,26,0.00,5,,223
2012-11-27,32,28,24,29,26,20,96,87,76,30.32,30.26,30.20,10,5,0,6,2,,0.02,7,Fog-Snow,209
2012-11-28,34,28,23,27,23,18,93,80,54,30.23,30.19,30.14,10,8,1,8,1,,0.00,5,,292
2012-11-29,39,30,21,22,19,14,88,61,36,30.26,30.20,30.15,10,10,10,10,5,16,0.00,3,,209
2012-11-30,33,28,23,25,6,-9,82,45,22,30.57,30.44,30.21,10,10,8,6,3,,0.00,6,,40